sensor_id;sensor_type;location;lat;lon;timestamp;P1;durP1;ratioP1;P2;durP2;ratioP2
77326;SDS011;66399;52.322;20.980;2023-02-15T00:03:45;21.30;;;9.40;;
77326;SDS011;66399;52.322;20.980;2023-02-15T00:07:52;21.30;;;9.80;;
77326;SDS011;66399;52.322;20.980;2023-02-15T00:11:57;21.50;;;9.30;;
77326;SDS011;66399;52.322;20.980;2023-02-15T00:16:03;22.90;;;9.50;;
77326;SDS011;66399;52.322;20.980;2023-02-15T00:24:13;22.40;;;8.60;;
77326;SDS011;66399;52.322;20.980;2023-02-15T00:28:18;31.00;;;10.40;;
77326;SDS011;66399;52.322;20.980;2023-02-15T00:32:24;24.30;;;9.40;;
77326;SDS011;66399;52.322;20.980;2023-02-15T00:36:29;22.70;;;10.40;;
77326;SDS011;66399;52.322;20.980;2023-02-15T00:40:34;20.40;;;9.10;;
77326;SDS011;66399;52.322;20.980;2023-02-15T00:44:40;23.40;;;10.60;;
77326;SDS011;66399;52.322;20.980;2023-02-15T00:48:45;21.40;;;10.50;;
77326;SDS011;66399;52.322;20.980;2023-02-15T00:52:50;23.30;;;10.80;;
77326;SDS011;66399;52.322;20.980;2023-02-15T00:56:55;25.30;;;10.40;;
77326;SDS011;66399;52.322;20.980;2023-02-15T01:01:03;21.00;;;10.30;;
77326;SDS011;66399;52.322;20.980;2023-02-15T01:05:09;20.90;;;9.90;;
77326;SDS011;66399;52.322;20.980;2023-02-15T01:09:15;28.20;;;11.10;;
77326;SDS011;66399;52.322;20.980;2023-02-15T01:13:20;19.90;;;9.40;;
77326;SDS011;66399;52.322;20.980;2023-02-15T01:17:25;24.00;;;11.60;;
77326;SDS011;66399;52.322;20.980;2023-02-15T01:21:30;25.70;;;10.10;;
77326;SDS011;66399;52.322;20.980;2023-02-15T01:25:38;19.90;;;9.80;;
77326;SDS011;66399;52.322;20.980;2023-02-15T01:29:43;18.40;;;8.50;;
77326;SDS011;66399;52.322;20.980;2023-02-15T01:33:49;16.10;;;8.20;;
77326;SDS011;66399;52.322;20.980;2023-02-15T01:37:54;23.80;;;9.70;;
77326;SDS011;66399;52.322;20.980;2023-02-15T01:42:00;22.00;;;10.00;;
77326;SDS011;66399;52.322;20.980;2023-02-15T01:46:06;21.30;;;10.00;;
77326;SDS011;66399;52.322;20.980;2023-02-15T01:50:13;24.30;;;10.60;;
77326;SDS011;66399;52.322;20.980;2023-02-15T01:54:19;24.10;;;10.50;;
77326;SDS011;66399;52.322;20.980;2023-02-15T01:58:29;24.10;;;10.10;;
77326;SDS011;66399;52.322;20.980;2023-02-15T02:02:34;19.50;;;10.00;;
77326;SDS011;66399;52.322;20.980;2023-02-15T02:06:40;19.70;;;9.30;;
77326;SDS011;66399;52.322;20.980;2023-02-15T02:10:46;23.20;;;10.40;;
77326;SDS011;66399;52.322;20.980;2023-02-15T02:14:51;21.20;;;10.20;;
77326;SDS011;66399;52.322;20.980;2023-02-15T02:19:01;22.00;;;9.50;;
77326;SDS011;66399;52.322;20.980;2023-02-15T02:23:14;21.20;;;9.80;;
77326;SDS011;66399;52.322;20.980;2023-02-15T02:27:27;25.40;;;10.50;;
77326;SDS011;66399;52.322;20.980;2023-02-15T02:31:43;22.60;;;9.60;;
77326;SDS011;66399;52.322;20.980;2023-02-15T02:35:51;20.20;;;9.70;;
77326;SDS011;66399;52.322;20.980;2023-02-15T02:40:01;23.30;;;9.50;;
77326;SDS011;66399;52.322;20.980;2023-02-15T02:44:10;23.30;;;9.70;;
77326;SDS011;66399;52.322;20.980;2023-02-15T02:48:18;25.70;;;9.80;;
77326;SDS011;66399;52.322;20.980;2023-02-15T02:52:40;21.30;;;9.40;;
77326;SDS011;66399;52.322;20.980;2023-02-15T02:56:46;23.00;;;9.40;;
77326;SDS011;66399;52.322;20.980;2023-02-15T03:00:53;23.80;;;9.90;;
77326;SDS011;66399;52.322;20.980;2023-02-15T03:05:00;27.00;;;9.40;;
77326;SDS011;66399;52.322;20.980;2023-02-15T03:09:10;24.70;;;10.20;;
77326;SDS011;66399;52.322;20.980;2023-02-15T03:13:18;21.10;;;9.60;;
77326;SDS011;66399;52.322;20.980;2023-02-15T03:17:24;24.70;;;10.10;;
77326;SDS011;66399;52.322;20.980;2023-02-15T03:21:32;24.30;;;10.90;;
77326;SDS011;66399;52.322;20.980;2023-02-15T03:25:39;21.30;;;9.30;;
77326;SDS011;66399;52.322;20.980;2023-02-15T03:29:45;24.60;;;9.90;;
77326;SDS011;66399;52.322;20.980;2023-02-15T03:37:56;23.20;;;9.70;;
77326;SDS011;66399;52.322;20.980;2023-02-15T03:42:03;22.60;;;10.70;;
77326;SDS011;66399;52.322;20.980;2023-02-15T03:46:11;27.50;;;10.40;;
77326;SDS011;66399;52.322;20.980;2023-02-15T03:50:18;25.00;;;9.60;;
77326;SDS011;66399;52.322;20.980;2023-02-15T03:54:41;27.10;;;10.30;;
77326;SDS011;66399;52.322;20.980;2023-02-15T03:58:47;20.80;;;9.60;;
77326;SDS011;66399;52.322;20.980;2023-02-15T04:03:22;24.30;;;10.20;;
77326;SDS011;66399;52.322;20.980;2023-02-15T04:07:28;24.10;;;10.10;;
77326;SDS011;66399;52.322;20.980;2023-02-15T04:11:33;24.10;;;9.70;;
77326;SDS011;66399;52.322;20.980;2023-02-15T04:15:38;25.60;;;10.40;;
77326;SDS011;66399;52.322;20.980;2023-02-15T04:20:05;27.70;;;10.60;;
77326;SDS011;66399;52.322;20.980;2023-02-15T04:24:28;23.60;;;9.90;;
77326;SDS011;66399;52.322;20.980;2023-02-15T04:28:51;22.10;;;9.50;;
77326;SDS011;66399;52.322;20.980;2023-02-15T04:32:57;23.90;;;10.30;;
77326;SDS011;66399;52.322;20.980;2023-02-15T04:37:02;27.50;;;10.80;;
77326;SDS011;66399;52.322;20.980;2023-02-15T04:41:07;25.10;;;10.50;;
77326;SDS011;66399;52.322;20.980;2023-02-15T04:45:14;22.00;;;9.90;;
77326;SDS011;66399;52.322;20.980;2023-02-15T04:49:19;21.50;;;8.80;;
77326;SDS011;66399;52.322;20.980;2023-02-15T04:53:25;19.10;;;9.40;;
77326;SDS011;66399;52.322;20.980;2023-02-15T04:57:30;20.00;;;9.20;;
77326;SDS011;66399;52.322;20.980;2023-02-15T05:01:35;18.20;;;8.00;;
77326;SDS011;66399;52.322;20.980;2023-02-15T05:05:40;18.90;;;7.10;;
77326;SDS011;66399;52.322;20.980;2023-02-15T05:09:46;19.50;;;7.80;;
77326;SDS011;66399;52.322;20.980;2023-02-15T05:13:51;22.40;;;8.00;;
77326;SDS011;66399;52.322;20.980;2023-02-15T05:17:56;15.70;;;5.60;;
77326;SDS011;66399;52.322;20.980;2023-02-15T05:22:01;15.80;;;6.30;;
77326;SDS011;66399;52.322;20.980;2023-02-15T05:26:07;16.70;;;7.60;;
77326;SDS011;66399;52.322;20.980;2023-02-15T05:34:35;17.00;;;6.80;;
77326;SDS011;66399;52.322;20.980;2023-02-15T05:38:40;17.00;;;7.90;;
77326;SDS011;66399;52.322;20.980;2023-02-15T05:42:46;18.30;;;7.80;;
77326;SDS011;66399;52.322;20.980;2023-02-15T05:46:51;19.40;;;7.40;;
77326;SDS011;66399;52.322;20.980;2023-02-15T05:50:59;18.90;;;8.10;;
77326;SDS011;66399;52.322;20.980;2023-02-15T05:55:05;15.30;;;6.30;;
77326;SDS011;66399;52.322;20.980;2023-02-15T05:59:12;16.70;;;7.00;;
77326;SDS011;66399;52.322;20.980;2023-02-15T06:03:17;20.60;;;8.00;;
77326;SDS011;66399;52.322;20.980;2023-02-15T06:07:23;18.50;;;7.20;;
77326;SDS011;66399;52.322;20.980;2023-02-15T06:11:28;21.30;;;8.10;;
77326;SDS011;66399;52.322;20.980;2023-02-15T06:15:33;21.10;;;8.40;;
77326;SDS011;66399;52.322;20.980;2023-02-15T06:19:38;18.30;;;7.70;;
77326;SDS011;66399;52.322;20.980;2023-02-15T06:23:44;16.50;;;6.30;;
77326;SDS011;66399;52.322;20.980;2023-02-15T06:27:49;15.80;;;7.10;;
77326;SDS011;66399;52.322;20.980;2023-02-15T06:31:54;17.10;;;7.30;;
77326;SDS011;66399;52.322;20.980;2023-02-15T06:36:00;18.80;;;6.80;;
77326;SDS011;66399;52.322;20.980;2023-02-15T06:40:07;14.70;;;6.80;;
77326;SDS011;66399;52.322;20.980;2023-02-15T06:44:12;15.70;;;6.10;;
77326;SDS011;66399;52.322;20.980;2023-02-15T06:48:17;16.50;;;6.60;;
77326;SDS011;66399;52.322;20.980;2023-02-15T06:52:23;15.20;;;6.70;;
77326;SDS011;66399;52.322;20.980;2023-02-15T06:56:29;18.00;;;7.10;;
77326;SDS011;66399;52.322;20.980;2023-02-15T07:00:34;16.70;;;6.90;;
77326;SDS011;66399;52.322;20.980;2023-02-15T07:04:39;19.20;;;7.60;;
77326;SDS011;66399;52.322;20.980;2023-02-15T07:08:44;16.60;;;7.10;;
77326;SDS011;66399;52.322;20.980;2023-02-15T07:12:50;18.00;;;7.70;;
77326;SDS011;66399;52.322;20.980;2023-02-15T07:16:55;12.70;;;6.20;;
77326;SDS011;66399;52.322;20.980;2023-02-15T07:21:00;13.40;;;6.40;;
77326;SDS011;66399;52.322;20.980;2023-02-15T07:25:07;16.20;;;5.20;;
77326;SDS011;66399;52.322;20.980;2023-02-15T07:29:13;16.20;;;6.60;;
77326;SDS011;66399;52.322;20.980;2023-02-15T07:33:19;9.70;;;4.80;;
77326;SDS011;66399;52.322;20.980;2023-02-15T07:37:31;13.70;;;6.80;;
77326;SDS011;66399;52.322;20.980;2023-02-15T07:41:36;16.90;;;6.70;;
77326;SDS011;66399;52.322;20.980;2023-02-15T07:45:41;18.80;;;7.00;;
77326;SDS011;66399;52.322;20.980;2023-02-15T07:49:46;17.30;;;7.00;;
77326;SDS011;66399;52.322;20.980;2023-02-15T07:53:53;16.30;;;7.70;;
77326;SDS011;66399;52.322;20.980;2023-02-15T07:57:59;15.70;;;6.60;;
77326;SDS011;66399;52.322;20.980;2023-02-15T08:02:04;14.70;;;6.50;;
77326;SDS011;66399;52.322;20.980;2023-02-15T08:06:10;20.00;;;7.40;;
77326;SDS011;66399;52.322;20.980;2023-02-15T08:10:17;15.80;;;7.70;;
77326;SDS011;66399;52.322;20.980;2023-02-15T08:14:42;17.50;;;6.90;;
77326;SDS011;66399;52.322;20.980;2023-02-15T08:18:47;15.50;;;7.00;;
77326;SDS011;66399;52.322;20.980;2023-02-15T08:22:52;16.00;;;7.30;;
77326;SDS011;66399;52.322;20.980;2023-02-15T08:26:58;17.10;;;8.10;;
77326;SDS011;66399;52.322;20.980;2023-02-15T08:31:07;17.90;;;7.40;;
77326;SDS011;66399;52.322;20.980;2023-02-15T08:35:13;17.10;;;6.50;;
77326;SDS011;66399;52.322;20.980;2023-02-15T08:39:18;16.80;;;7.20;;
77326;SDS011;66399;52.322;20.980;2023-02-15T08:43:23;13.80;;;6.60;;
77326;SDS011;66399;52.322;20.980;2023-02-15T08:47:28;15.00;;;6.60;;
77326;SDS011;66399;52.322;20.980;2023-02-15T08:51:34;19.50;;;7.80;;
77326;SDS011;66399;52.322;20.980;2023-02-15T08:55:40;21.30;;;7.90;;
77326;SDS011;66399;52.322;20.980;2023-02-15T08:59:45;17.20;;;7.60;;
77326;SDS011;66399;52.322;20.980;2023-02-15T09:07:56;17.80;;;7.40;;
77326;SDS011;66399;52.322;20.980;2023-02-15T09:12:01;16.80;;;6.60;;
77326;SDS011;66399;52.322;20.980;2023-02-15T09:16:07;18.30;;;7.10;;
77326;SDS011;66399;52.322;20.980;2023-02-15T09:20:13;19.00;;;7.60;;
77326;SDS011;66399;52.322;20.980;2023-02-15T09:24:18;20.00;;;7.10;;
77326;SDS011;66399;52.322;20.980;2023-02-15T09:28:23;15.80;;;7.40;;
77326;SDS011;66399;52.322;20.980;2023-02-15T09:32:29;18.40;;;7.40;;
77326;SDS011;66399;52.322;20.980;2023-02-15T09:36:34;18.10;;;6.90;;
77326;SDS011;66399;52.322;20.980;2023-02-15T09:40:41;18.40;;;8.40;;
77326;SDS011;66399;52.322;20.980;2023-02-15T09:44:52;15.80;;;7.80;;
77326;SDS011;66399;52.322;20.980;2023-02-15T09:49:03;16.20;;;6.80;;
77326;SDS011;66399;52.322;20.980;2023-02-15T09:53:17;15.80;;;7.50;;
77326;SDS011;66399;52.322;20.980;2023-02-15T09:57:26;19.20;;;7.50;;
77326;SDS011;66399;52.322;20.980;2023-02-15T10:01:36;15.60;;;7.40;;
77326;SDS011;66399;52.322;20.980;2023-02-15T10:05:49;14.60;;;7.00;;
77326;SDS011;66399;52.322;20.980;2023-02-15T10:10:02;14.80;;;7.00;;
77326;SDS011;66399;52.322;20.980;2023-02-15T10:14:12;17.30;;;7.20;;
77326;SDS011;66399;52.322;20.980;2023-02-15T10:18:33;14.80;;;6.20;;
77326;SDS011;66399;52.322;20.980;2023-02-15T10:22:45;16.60;;;6.40;;
77326;SDS011;66399;52.322;20.980;2023-02-15T10:26:52;14.50;;;5.90;;
77326;SDS011;66399;52.322;20.980;2023-02-15T10:31:02;14.80;;;5.80;;
77326;SDS011;66399;52.322;20.980;2023-02-15T10:35:13;14.80;;;6.30;;
77326;SDS011;66399;52.322;20.980;2023-02-15T10:39:22;17.00;;;6.60;;
77326;SDS011;66399;52.322;20.980;2023-02-15T10:47:57;15.00;;;6.50;;
77326;SDS011;66399;52.322;20.980;2023-02-15T10:52:09;14.30;;;6.70;;
77326;SDS011;66399;52.322;20.980;2023-02-15T10:56:19;15.20;;;5.90;;
77326;SDS011;66399;52.322;20.980;2023-02-15T11:00:26;16.60;;;5.80;;
77326;SDS011;66399;52.322;20.980;2023-02-15T11:04:43;12.40;;;5.70;;
77326;SDS011;66399;52.322;20.980;2023-02-15T11:08:51;15.30;;;5.60;;
77326;SDS011;66399;52.322;20.980;2023-02-15T11:12:59;14.00;;;6.60;;
77326;SDS011;66399;52.322;20.980;2023-02-15T11:17:09;15.50;;;6.70;;
77326;SDS011;66399;52.322;20.980;2023-02-15T11:21:17;14.40;;;6.70;;
77326;SDS011;66399;52.322;20.980;2023-02-15T11:25:28;16.20;;;7.30;;
77326;SDS011;66399;52.322;20.980;2023-02-15T11:29:35;14.50;;;7.10;;
77326;SDS011;66399;52.322;20.980;2023-02-15T11:33:43;16.10;;;6.50;;
77326;SDS011;66399;52.322;20.980;2023-02-15T11:37:51;14.00;;;6.20;;
77326;SDS011;66399;52.322;20.980;2023-02-15T11:41:59;16.00;;;6.10;;
77326;SDS011;66399;52.322;20.980;2023-02-15T11:46:05;13.50;;;6.20;;
77326;SDS011;66399;52.322;20.980;2023-02-15T11:54:17;12.60;;;5.70;;
77326;SDS011;66399;52.322;20.980;2023-02-15T11:58:25;13.80;;;6.10;;
77326;SDS011;66399;52.322;20.980;2023-02-15T12:02:33;14.00;;;5.90;;
77326;SDS011;66399;52.322;20.980;2023-02-15T12:06:42;15.80;;;6.60;;
77326;SDS011;66399;52.322;20.980;2023-02-15T12:10:57;15.50;;;6.40;;
77326;SDS011;66399;52.322;20.980;2023-02-15T12:15:07;13.50;;;6.60;;
77326;SDS011;66399;52.322;20.980;2023-02-15T12:23:46;11.10;;;5.80;;
77326;SDS011;66399;52.322;20.980;2023-02-15T12:27:53;15.40;;;5.50;;
77326;SDS011;66399;52.322;20.980;2023-02-15T12:31:58;14.80;;;6.40;;
77326;SDS011;66399;52.322;20.980;2023-02-15T12:40:20;13.10;;;6.00;;
77326;SDS011;66399;52.322;20.980;2023-02-15T12:44:26;15.40;;;6.30;;
77326;SDS011;66399;52.322;20.980;2023-02-15T12:48:32;12.10;;;5.80;;
77326;SDS011;66399;52.322;20.980;2023-02-15T12:52:44;16.50;;;7.40;;
77326;SDS011;66399;52.322;20.980;2023-02-15T12:56:51;14.50;;;6.30;;
77326;SDS011;66399;52.322;20.980;2023-02-15T13:01:04;14.00;;;6.80;;
77326;SDS011;66399;52.322;20.980;2023-02-15T13:05:17;16.30;;;6.70;;
77326;SDS011;66399;52.322;20.980;2023-02-15T13:09:25;20.60;;;8.20;;
77326;SDS011;66399;52.322;20.980;2023-02-15T13:13:34;18.60;;;8.10;;
77326;SDS011;66399;52.322;20.980;2023-02-15T13:17:43;20.00;;;8.20;;
77326;SDS011;66399;52.322;20.980;2023-02-15T13:21:48;19.00;;;7.40;;
77326;SDS011;66399;52.322;20.980;2023-02-15T13:25:55;16.70;;;7.60;;
77326;SDS011;66399;52.322;20.980;2023-02-15T13:30:02;21.30;;;7.70;;
77326;SDS011;66399;52.322;20.980;2023-02-15T13:34:09;18.70;;;7.00;;
77326;SDS011;66399;52.322;20.980;2023-02-15T13:38:21;24.80;;;9.10;;
77326;SDS011;66399;52.322;20.980;2023-02-15T13:42:31;18.70;;;8.10;;
77326;SDS011;66399;52.322;20.980;2023-02-15T13:46:47;20.30;;;7.70;;
77326;SDS011;66399;52.322;20.980;2023-02-15T13:50:56;22.30;;;8.90;;
77326;SDS011;66399;52.322;20.980;2023-02-15T13:55:23;21.30;;;9.20;;
77326;SDS011;66399;52.322;20.980;2023-02-15T14:04:06;22.20;;;7.80;;
77326;SDS011;66399;52.322;20.980;2023-02-15T14:08:17;17.40;;;7.90;;
77326;SDS011;66399;52.322;20.980;2023-02-15T14:12:29;17.50;;;8.50;;
77326;SDS011;66399;52.322;20.980;2023-02-15T14:16:39;19.20;;;8.30;;
77326;SDS011;66399;52.322;20.980;2023-02-15T14:20:54;23.20;;;8.90;;
77326;SDS011;66399;52.322;20.980;2023-02-15T14:25:04;19.90;;;8.20;;
77326;SDS011;66399;52.322;20.980;2023-02-15T14:29:16;25.30;;;10.00;;
77326;SDS011;66399;52.322;20.980;2023-02-15T14:33:28;23.30;;;10.20;;
77326;SDS011;66399;52.322;20.980;2023-02-15T14:37:39;25.90;;;9.60;;
77326;SDS011;66399;52.322;20.980;2023-02-15T14:41:48;23.70;;;8.90;;
77326;SDS011;66399;52.322;20.980;2023-02-15T14:45:56;19.90;;;8.20;;
77326;SDS011;66399;52.322;20.980;2023-02-15T14:58:57;24.90;;;10.20;;
77326;SDS011;66399;52.322;20.980;2023-02-15T15:03:03;23.80;;;9.20;;
77326;SDS011;66399;52.322;20.980;2023-02-15T15:07:17;22.50;;;8.40;;
77326;SDS011;66399;52.322;20.980;2023-02-15T15:11:43;25.30;;;9.30;;
77326;SDS011;66399;52.322;20.980;2023-02-15T15:15:48;22.10;;;8.20;;
77326;SDS011;66399;52.322;20.980;2023-02-15T15:19:58;22.40;;;9.00;;
77326;SDS011;66399;52.322;20.980;2023-02-15T15:24:05;25.20;;;9.20;;
77326;SDS011;66399;52.322;20.980;2023-02-15T15:28:10;27.00;;;9.60;;
77326;SDS011;66399;52.322;20.980;2023-02-15T15:32:35;23.30;;;9.80;;
77326;SDS011;66399;52.322;20.980;2023-02-15T15:41:07;16.80;;;7.10;;
77326;SDS011;66399;52.322;20.980;2023-02-15T15:49:38;27.50;;;10.30;;
77326;SDS011;66399;52.322;20.980;2023-02-15T15:53:45;29.70;;;11.00;;
77326;SDS011;66399;52.322;20.980;2023-02-15T15:57:53;25.40;;;10.20;;
77326;SDS011;66399;52.322;20.980;2023-02-15T16:02:04;29.90;;;10.90;;
77326;SDS011;66399;52.322;20.980;2023-02-15T16:06:12;32.10;;;10.00;;
77326;SDS011;66399;52.322;20.980;2023-02-15T16:10:21;29.20;;;10.80;;
77326;SDS011;66399;52.322;20.980;2023-02-15T16:14:28;23.40;;;9.30;;
77326;SDS011;66399;52.322;20.980;2023-02-15T16:18:36;28.60;;;10.50;;
77326;SDS011;66399;52.322;20.980;2023-02-15T16:22:42;27.80;;;10.20;;
77326;SDS011;66399;52.322;20.980;2023-02-15T16:27:00;24.60;;;9.10;;
77326;SDS011;66399;52.322;20.980;2023-02-15T16:31:11;26.80;;;9.30;;
77326;SDS011;66399;52.322;20.980;2023-02-15T16:35:18;21.60;;;8.20;;
77326;SDS011;66399;52.322;20.980;2023-02-15T16:39:24;25.80;;;10.10;;
77326;SDS011;66399;52.322;20.980;2023-02-15T16:43:29;24.20;;;9.50;;
77326;SDS011;66399;52.322;20.980;2023-02-15T16:47:36;24.40;;;10.00;;
77326;SDS011;66399;52.322;20.980;2023-02-15T16:51:44;22.50;;;8.30;;
77326;SDS011;66399;52.322;20.980;2023-02-15T16:55:58;23.10;;;8.00;;
77326;SDS011;66399;52.322;20.980;2023-02-15T17:00:05;21.50;;;7.20;;
77326;SDS011;66399;52.322;20.980;2023-02-15T17:04:12;19.00;;;7.40;;
77326;SDS011;66399;52.322;20.980;2023-02-15T17:08:18;19.50;;;7.80;;
77326;SDS011;66399;52.322;20.980;2023-02-15T17:16:42;26.70;;;9.60;;
77326;SDS011;66399;52.322;20.980;2023-02-15T17:20:53;20.30;;;7.00;;
77326;SDS011;66399;52.322;20.980;2023-02-15T17:25:00;23.30;;;8.80;;
77326;SDS011;66399;52.322;20.980;2023-02-15T17:29:11;24.40;;;8.60;;
77326;SDS011;66399;52.322;20.980;2023-02-15T17:33:20;19.30;;;8.30;;
77326;SDS011;66399;52.322;20.980;2023-02-15T17:37:28;19.60;;;7.90;;
77326;SDS011;66399;52.322;20.980;2023-02-15T17:41:34;20.30;;;7.90;;
77326;SDS011;66399;52.322;20.980;2023-02-15T17:45:42;18.70;;;7.70;;
77326;SDS011;66399;52.322;20.980;2023-02-15T17:49:49;23.00;;;8.10;;
77326;SDS011;66399;52.322;20.980;2023-02-15T17:53:54;22.20;;;8.60;;
77326;SDS011;66399;52.322;20.980;2023-02-15T17:58:17;23.50;;;9.40;;
77326;SDS011;66399;52.322;20.980;2023-02-15T18:06:44;23.60;;;8.60;;
77326;SDS011;66399;52.322;20.980;2023-02-15T18:11:07;27.50;;;10.50;;
77326;SDS011;66399;52.322;20.980;2023-02-15T18:15:30;23.70;;;9.60;;
77326;SDS011;66399;52.322;20.980;2023-02-15T18:19:35;25.40;;;9.40;;
77326;SDS011;66399;52.322;20.980;2023-02-15T18:23:41;21.70;;;7.70;;
77326;SDS011;66399;52.322;20.980;2023-02-15T18:27:46;25.60;;;8.90;;
77326;SDS011;66399;52.322;20.980;2023-02-15T18:31:52;20.80;;;8.80;;
77326;SDS011;66399;52.322;20.980;2023-02-15T18:35:58;19.90;;;7.80;;
77326;SDS011;66399;52.322;20.980;2023-02-15T18:40:05;21.30;;;8.90;;
77326;SDS011;66399;52.322;20.980;2023-02-15T18:44:10;20.70;;;8.20;;
77326;SDS011;66399;52.322;20.980;2023-02-15T18:48:16;23.40;;;8.50;;
77326;SDS011;66399;52.322;20.980;2023-02-15T18:52:22;26.30;;;10.20;;
77326;SDS011;66399;52.322;20.980;2023-02-15T18:56:28;23.00;;;8.90;;
77326;SDS011;66399;52.322;20.980;2023-02-15T19:00:35;21.60;;;9.40;;
77326;SDS011;66399;52.322;20.980;2023-02-15T19:04:41;21.10;;;8.60;;
77326;SDS011;66399;52.322;20.980;2023-02-15T19:08:47;24.30;;;9.90;;
77326;SDS011;66399;52.322;20.980;2023-02-15T19:12:53;24.70;;;9.90;;
77326;SDS011;66399;52.322;20.980;2023-02-15T19:16:59;26.10;;;10.40;;
77326;SDS011;66399;52.322;20.980;2023-02-15T19:21:04;27.50;;;11.00;;
77326;SDS011;66399;52.322;20.980;2023-02-15T19:25:13;26.80;;;9.90;;
77326;SDS011;66399;52.322;20.980;2023-02-15T19:29:23;25.30;;;10.20;;
77326;SDS011;66399;52.322;20.980;2023-02-15T19:33:29;25.20;;;9.20;;
77326;SDS011;66399;52.322;20.980;2023-02-15T19:37:35;24.50;;;9.50;;
77326;SDS011;66399;52.322;20.980;2023-02-15T19:41:45;24.50;;;10.30;;
77326;SDS011;66399;52.322;20.980;2023-02-15T19:45:50;25.00;;;9.60;;
77326;SDS011;66399;52.322;20.980;2023-02-15T19:49:56;28.10;;;10.60;;
77326;SDS011;66399;52.322;20.980;2023-02-15T19:54:08;27.70;;;11.10;;
77326;SDS011;66399;52.322;20.980;2023-02-15T19:58:15;22.50;;;8.60;;
77326;SDS011;66399;52.322;20.980;2023-02-15T20:02:22;25.20;;;10.10;;
77326;SDS011;66399;52.322;20.980;2023-02-15T20:06:28;27.20;;;10.40;;
77326;SDS011;66399;52.322;20.980;2023-02-15T20:10:33;24.00;;;9.30;;
77326;SDS011;66399;52.322;20.980;2023-02-15T20:14:38;24.50;;;9.30;;
77326;SDS011;66399;52.322;20.980;2023-02-15T20:18:46;27.30;;;10.00;;
77326;SDS011;66399;52.322;20.980;2023-02-15T20:22:51;26.30;;;9.80;;
77326;SDS011;66399;52.322;20.980;2023-02-15T20:26:56;28.90;;;9.50;;
77326;SDS011;66399;52.322;20.980;2023-02-15T20:31:03;25.40;;;9.90;;
77326;SDS011;66399;52.322;20.980;2023-02-15T20:35:12;29.30;;;10.50;;
77326;SDS011;66399;52.322;20.980;2023-02-15T20:39:17;31.00;;;10.90;;
77326;SDS011;66399;52.322;20.980;2023-02-15T20:43:23;26.80;;;10.20;;
77326;SDS011;66399;52.322;20.980;2023-02-15T20:47:28;26.80;;;9.90;;
77326;SDS011;66399;52.322;20.980;2023-02-15T20:51:34;28.80;;;10.30;;
77326;SDS011;66399;52.322;20.980;2023-02-15T20:55:39;26.90;;;10.60;;
77326;SDS011;66399;52.322;20.980;2023-02-15T20:59:44;28.10;;;11.20;;
77326;SDS011;66399;52.322;20.980;2023-02-15T21:03:49;35.00;;;11.40;;
77326;SDS011;66399;52.322;20.980;2023-02-15T21:07:55;35.20;;;14.80;;
77326;SDS011;66399;52.322;20.980;2023-02-15T21:12:00;35.00;;;12.90;;
77326;SDS011;66399;52.322;20.980;2023-02-15T21:16:07;32.10;;;11.10;;
77326;SDS011;66399;52.322;20.980;2023-02-15T21:24:20;38.60;;;12.10;;
77326;SDS011;66399;52.322;20.980;2023-02-15T21:28:27;34.00;;;12.00;;
77326;SDS011;66399;52.322;20.980;2023-02-15T21:32:32;31.70;;;12.00;;
77326;SDS011;66399;52.322;20.980;2023-02-15T21:36:39;43.50;;;12.40;;
77326;SDS011;66399;52.322;20.980;2023-02-15T21:40:45;52.20;;;15.40;;
77326;SDS011;66399;52.322;20.980;2023-02-15T21:44:50;57.00;;;16.30;;
77326;SDS011;66399;52.322;20.980;2023-02-15T21:49:13;44.60;;;13.80;;
77326;SDS011;66399;52.322;20.980;2023-02-15T21:53:21;46.30;;;15.80;;
77326;SDS011;66399;52.322;20.980;2023-02-15T21:57:26;41.60;;;14.80;;
77326;SDS011;66399;52.322;20.980;2023-02-15T22:01:32;41.30;;;14.40;;
77326;SDS011;66399;52.322;20.980;2023-02-15T22:05:37;53.40;;;18.20;;
77326;SDS011;66399;52.322;20.980;2023-02-15T22:09:42;49.20;;;15.40;;
77326;SDS011;66399;52.322;20.980;2023-02-15T22:13:48;42.40;;;14.00;;
77326;SDS011;66399;52.322;20.980;2023-02-15T22:17:53;40.70;;;13.60;;
77326;SDS011;66399;52.322;20.980;2023-02-15T22:21:59;50.10;;;14.40;;
77326;SDS011;66399;52.322;20.980;2023-02-15T22:26:05;44.90;;;14.20;;
77326;SDS011;66399;52.322;20.980;2023-02-15T22:30:16;49.90;;;13.30;;
77326;SDS011;66399;52.322;20.980;2023-02-15T22:34:25;50.90;;;16.00;;
77326;SDS011;66399;52.322;20.980;2023-02-15T22:38:31;45.00;;;14.90;;
77326;SDS011;66399;52.322;20.980;2023-02-15T22:42:36;50.50;;;16.10;;
77326;SDS011;66399;52.322;20.980;2023-02-15T22:46:43;42.20;;;14.50;;
77326;SDS011;66399;52.322;20.980;2023-02-15T22:50:48;47.50;;;14.20;;
77326;SDS011;66399;52.322;20.980;2023-02-15T22:54:53;47.20;;;15.00;;
77326;SDS011;66399;52.322;20.980;2023-02-15T22:58:59;48.50;;;14.70;;
77326;SDS011;66399;52.322;20.980;2023-02-15T23:07:13;42.40;;;14.90;;
77326;SDS011;66399;52.322;20.980;2023-02-15T23:11:18;48.70;;;15.90;;
77326;SDS011;66399;52.322;20.980;2023-02-15T23:15:24;51.00;;;16.80;;
77326;SDS011;66399;52.322;20.980;2023-02-15T23:19:29;48.10;;;14.70;;
77326;SDS011;66399;52.322;20.980;2023-02-15T23:23:35;45.30;;;14.80;;
77326;SDS011;66399;52.322;20.980;2023-02-15T23:32:03;46.60;;;15.20;;
77326;SDS011;66399;52.322;20.980;2023-02-15T23:36:09;54.30;;;17.00;;
77326;SDS011;66399;52.322;20.980;2023-02-15T23:40:18;56.00;;;17.50;;
77326;SDS011;66399;52.322;20.980;2023-02-15T23:44:41;46.50;;;14.60;;
77326;SDS011;66399;52.322;20.980;2023-02-15T23:48:47;54.90;;;16.30;;
77326;SDS011;66399;52.322;20.980;2023-02-15T23:52:53;52.40;;;16.20;;
77326;SDS011;66399;52.322;20.980;2023-02-15T23:56:59;48.10;;;14.40;;
